sensor_id;sensor_type;location;lat;lon;timestamp;temperature;humidity
23477;DHT22;11911;50.768;13.150;2022-09-12T04:00:16;12.10;96.30
23477;DHT22;11911;50.768;13.150;2022-09-12T04:02:41;12.10;96.30
23477;DHT22;11911;50.768;13.150;2022-09-12T04:05:07;12.10;96.30
23477;DHT22;11911;50.768;13.150;2022-09-12T04:07:32;12.00;96.30
23477;DHT22;11911;50.768;13.150;2022-09-12T04:09:58;11.90;96.30
23477;DHT22;11911;50.768;13.150;2022-09-12T04:12:23;11.70;96.30
23477;DHT22;11911;50.768;13.150;2022-09-12T04:14:49;11.70;96.30
23477;DHT22;11911;50.768;13.150;2022-09-12T04:17:14;11.70;96.30
23477;DHT22;11911;50.768;13.150;2022-09-12T04:19:40;11.70;96.30
23477;DHT22;11911;50.768;13.150;2022-09-12T04:22:05;11.80;96.30
23477;DHT22;11911;50.768;13.150;2022-09-12T04:24:31;11.80;96.30
23477;DHT22;11911;50.768;13.150;2022-09-12T04:26:57;11.90;96.30
23477;DHT22;11911;50.768;13.150;2022-09-12T04:29:22;11.90;96.30
23477;DHT22;11911;50.768;13.150;2022-09-12T04:31:48;12.00;96.30
23477;DHT22;11911;50.768;13.150;2022-09-12T04:34:14;12.00;96.30
23477;DHT22;11911;50.768;13.150;2022-09-12T04:36:40;12.00;96.30
23477;DHT22;11911;50.768;13.150;2022-09-12T04:39:05;12.00;96.30
23477;DHT22;11911;50.768;13.150;2022-09-12T04:41:34;12.00;96.30
23477;DHT22;11911;50.768;13.150;2022-09-12T04:44:02;12.00;96.30
23477;DHT22;11911;50.768;13.150;2022-09-12T04:46:31;12.00;96.30
23477;DHT22;11911;50.768;13.150;2022-09-12T04:48:57;11.90;96.30
23477;DHT22;11911;50.768;13.150;2022-09-12T04:51:28;11.90;96.30
23477;DHT22;11911;50.768;13.150;2022-09-12T04:53:56;11.80;96.30
23477;DHT22;11911;50.768;13.150;2022-09-12T04:56:23;11.70;96.30
23477;DHT22;11911;50.768;13.150;2022-09-12T04:58:48;11.70;96.30
23477;DHT22;11911;50.768;13.150;2022-09-12T05:01:17;11.70;96.30
23477;DHT22;11911;50.768;13.150;2022-09-12T05:03:43;11.70;96.30
23477;DHT22;11911;50.768;13.150;2022-09-12T05:06:14;11.60;96.30
23477;DHT22;11911;50.768;13.150;2022-09-12T05:08:40;11.60;96.30
23477;DHT22;11911;50.768;13.150;2022-09-12T05:11:14;11.60;96.30
23477;DHT22;11911;50.768;13.150;2022-09-12T05:13:40;11.60;96.30
23477;DHT22;11911;50.768;13.150;2022-09-12T05:16:08;11.70;96.30
23477;DHT22;11911;50.768;13.150;2022-09-12T05:18:35;11.70;96.30
23477;DHT22;11911;50.768;13.150;2022-09-12T05:21:02;11.70;96.30
23477;DHT22;11911;50.768;13.150;2022-09-12T05:23:29;11.80;96.30
23477;DHT22;11911;50.768;13.150;2022-09-12T05:25:57;11.80;96.30
23477;DHT22;11911;50.768;13.150;2022-09-12T05:28:24;11.90;96.30
23477;DHT22;11911;50.768;13.150;2022-09-12T05:31:20;12.00;96.30
23477;DHT22;11911;50.768;13.150;2022-09-12T05:33:47;12.50;96.30
23477;DHT22;11911;50.768;13.150;2022-09-12T05:36:26;12.70;96.30
23477;DHT22;11911;50.768;13.150;2022-09-12T05:38:52;12.80;96.30
23477;DHT22;11911;50.768;13.150;2022-09-12T05:41:26;12.90;96.30
23477;DHT22;11911;50.768;13.150;2022-09-12T05:43:55;12.90;96.30
23477;DHT22;11911;50.768;13.150;2022-09-12T05:46:26;12.80;96.30
23477;DHT22;11911;50.768;13.150;2022-09-12T05:48:52;12.80;96.30
23477;DHT22;11911;50.768;13.150;2022-09-12T05:51:21;12.70;96.30
23477;DHT22;11911;50.768;13.150;2022-09-12T05:53:50;12.70;96.30
23477;DHT22;11911;50.768;13.150;2022-09-12T05:56:19;12.80;96.30
23477;DHT22;11911;50.768;13.150;2022-09-12T05:58:47;12.80;96.30
23477;DHT22;11911;50.768;13.150;2022-09-12T06:01:14;12.90;96.30
23477;DHT22;11911;50.768;13.150;2022-09-12T06:03:43;12.90;96.30
23477;DHT22;11911;50.768;13.150;2022-09-12T06:06:09;13.00;96.30
23477;DHT22;11911;50.768;13.150;2022-09-12T06:08:38;13.10;96.30
23477;DHT22;11911;50.768;13.150;2022-09-12T06:11:05;13.20;96.30
23477;DHT22;11911;50.768;13.150;2022-09-12T06:13:32;13.20;96.30
23477;DHT22;11911;50.768;13.150;2022-09-12T06:16:05;13.20;96.30
23477;DHT22;11911;50.768;13.150;2022-09-12T06:18:32;13.20;96.30
23477;DHT22;11911;50.768;13.150;2022-09-12T06:21:05;13.30;96.30
23477;DHT22;11911;50.768;13.150;2022-09-12T06:23:31;13.30;96.30
23477;DHT22;11911;50.768;13.150;2022-09-12T06:25:56;13.30;96.30
23477;DHT22;11911;50.768;13.150;2022-09-12T06:28:22;13.30;96.30
23477;DHT22;11911;50.768;13.150;2022-09-12T06:30:47;13.30;96.30
23477;DHT22;11911;50.768;13.150;2022-09-12T06:33:13;13.40;96.30
23477;DHT22;11911;50.768;13.150;2022-09-12T06:35:39;13.40;96.30
23477;DHT22;11911;50.768;13.150;2022-09-12T06:38:05;13.40;96.30
23477;DHT22;11911;50.768;13.150;2022-09-12T06:40:31;13.40;96.30
23477;DHT22;11911;50.768;13.150;2022-09-12T06:42:57;13.50;96.30
23477;DHT22;11911;50.768;13.150;2022-09-12T06:45:23;13.50;96.30
23477;DHT22;11911;50.768;13.150;2022-09-12T06:47:50;13.40;96.30
23477;DHT22;11911;50.768;13.150;2022-09-12T06:50:16;13.50;96.30
23477;DHT22;11911;50.768;13.150;2022-09-12T06:52:42;13.60;96.30
23477;DHT22;11911;50.768;13.150;2022-09-12T06:55:09;13.60;96.30
23477;DHT22;11911;50.768;13.150;2022-09-12T06:57:34;14.00;96.30
23477;DHT22;11911;50.768;13.150;2022-09-12T07:00:04;14.50;96.30
23477;DHT22;11911;50.768;13.150;2022-09-12T07:02:30;15.10;96.30
23477;DHT22;11911;50.768;13.150;2022-09-12T07:04:55;15.80;96.30
23477;DHT22;11911;50.768;13.150;2022-09-12T07:07:21;16.60;96.30
23477;DHT22;11911;50.768;13.150;2022-09-12T07:09:46;17.60;96.30
23477;DHT22;11911;50.768;13.150;2022-09-12T07:12:13;17.90;96.30
23477;DHT22;11911;50.768;13.150;2022-09-12T07:14:39;17.90;96.30
23477;DHT22;11911;50.768;13.150;2022-09-12T07:17:04;18.80;96.30
23477;DHT22;11911;50.768;13.150;2022-09-12T07:19:30;19.90;96.30
23477;DHT22;11911;50.768;13.150;2022-09-12T07:21:55;20.10;96.30
23477;DHT22;11911;50.768;13.150;2022-09-12T07:24:21;20.40;96.30
23477;DHT22;11911;50.768;13.150;2022-09-12T07:26:46;19.70;96.30
23477;DHT22;11911;50.768;13.150;2022-09-12T07:29:14;19.20;96.30
23477;DHT22;11911;50.768;13.150;2022-09-12T07:31:40;18.50;96.30
23477;DHT22;11911;50.768;13.150;2022-09-12T07:34:06;18.40;96.30
23477;DHT22;11911;50.768;13.150;2022-09-12T07:36:31;18.60;96.30
23477;DHT22;11911;50.768;13.150;2022-09-12T07:38:57;19.10;96.30
23477;DHT22;11911;50.768;13.150;2022-09-12T07:41:25;18.80;96.30
23477;DHT22;11911;50.768;13.150;2022-09-12T07:43:59;19.20;96.30
23477;DHT22;11911;50.768;13.150;2022-09-12T07:46:26;20.80;96.30
23477;DHT22;11911;50.768;13.150;2022-09-12T07:48:55;22.00;96.30
23477;DHT22;11911;50.768;13.150;2022-09-12T07:51:22;22.00;96.30
23477;DHT22;11911;50.768;13.150;2022-09-12T07:53:49;21.00;96.30
23477;DHT22;11911;50.768;13.150;2022-09-12T07:56:15;20.10;96.30
23477;DHT22;11911;50.768;13.150;2022-09-12T07:58:42;19.80;96.30
23477;DHT22;11911;50.768;13.150;2022-09-12T08:01:10;19.50;96.30
23477;DHT22;11911;50.768;13.150;2022-09-12T08:03:41;19.10;96.30
23477;DHT22;11911;50.768;13.150;2022-09-12T08:06:09;19.90;96.30
23477;DHT22;11911;50.768;13.150;2022-09-12T08:08:35;21.40;96.30
23477;DHT22;11911;50.768;13.150;2022-09-12T08:11:04;22.10;96.30
23477;DHT22;11911;50.768;13.150;2022-09-12T08:13:31;22.80;96.30
23477;DHT22;11911;50.768;13.150;2022-09-12T08:15:58;22.60;96.30
23477;DHT22;11911;50.768;13.150;2022-09-12T08:18:25;22.20;96.30
23477;DHT22;11911;50.768;13.150;2022-09-12T08:20:58;21.30;96.30
23477;DHT22;11911;50.768;13.150;2022-09-12T08:23:24;20.90;96.30
23477;DHT22;11911;50.768;13.150;2022-09-12T08:25:51;20.50;96.30
23477;DHT22;11911;50.768;13.150;2022-09-12T08:28:19;20.40;96.30
23477;DHT22;11911;50.768;13.150;2022-09-12T08:30:44;20.10;96.30
23477;DHT22;11911;50.768;13.150;2022-09-12T08:33:10;19.60;96.30
23477;DHT22;11911;50.768;13.150;2022-09-12T08:35:35;19.40;96.30
23477;DHT22;11911;50.768;13.150;2022-09-12T08:38:01;19.20;96.30
23477;DHT22;11911;50.768;13.150;2022-09-12T08:40:26;19.30;96.30
23477;DHT22;11911;50.768;13.150;2022-09-12T08:46:03;19.30;96.30
23477;DHT22;11911;50.768;13.150;2022-09-12T08:48:31;19.50;96.30
23477;DHT22;11911;50.768;13.150;2022-09-12T08:50:58;19.40;96.30
23477;DHT22;11911;50.768;13.150;2022-09-12T08:53:27;19.20;96.30
23477;DHT22;11911;50.768;13.150;2022-09-12T08:55:57;19.10;96.30
23477;DHT22;11911;50.768;13.150;2022-09-12T08:58:25;18.50;96.30
23477;DHT22;11911;50.768;13.150;2022-09-12T09:01:01;18.30;96.30
23477;DHT22;11911;50.768;13.150;2022-09-12T09:03:37;18.20;96.30
23477;DHT22;11911;50.768;13.150;2022-09-12T09:06:16;18.40;96.30
23477;DHT22;11911;50.768;13.150;2022-09-12T09:08:55;18.90;96.30
23477;DHT22;11911;50.768;13.150;2022-09-12T09:11:52;19.30;96.30
23477;DHT22;11911;50.768;13.150;2022-09-12T09:17:41;19.40;96.30
23477;DHT22;11911;50.768;13.150;2022-09-12T09:20:27;19.60;96.30
23477;DHT22;11911;50.768;13.150;2022-09-12T09:23:19;19.80;96.30
23477;DHT22;11911;50.768;13.150;2022-09-12T09:26:03;19.80;96.30
23477;DHT22;11911;50.768;13.150;2022-09-12T09:28:44;19.40;96.30
23477;DHT22;11911;50.768;13.150;2022-09-12T09:31:15;19.00;96.30
23477;DHT22;11911;50.768;13.150;2022-09-12T09:33:41;18.80;96.30
23477;DHT22;11911;50.768;13.150;2022-09-12T09:36:36;18.60;96.30
23477;DHT22;11911;50.768;13.150;2022-09-12T09:39:11;18.80;96.30
23477;DHT22;11911;50.768;13.150;2022-09-12T09:42:07;19.20;96.30
23477;DHT22;11911;50.768;13.150;2022-09-12T09:44:35;20.20;96.30
23477;DHT22;11911;50.768;13.150;2022-09-12T09:47:01;20.50;96.30
23477;DHT22;11911;50.768;13.150;2022-09-12T09:49:29;20.00;96.30
23477;DHT22;11911;50.768;13.150;2022-09-12T09:51:56;21.00;96.30
23477;DHT22;11911;50.768;13.150;2022-09-12T09:54:26;21.90;96.30
23477;DHT22;11911;50.768;13.150;2022-09-12T09:56:55;22.20;96.30
23477;DHT22;11911;50.768;13.150;2022-09-12T09:59:32;22.40;96.30
23477;DHT22;11911;50.768;13.150;2022-09-12T10:04:40;23.60;96.30
23477;DHT22;11911;50.768;13.150;2022-09-12T10:07:16;23.00;96.30
23477;DHT22;11911;50.768;13.150;2022-09-12T10:10:12;23.50;96.30
23477;DHT22;11911;50.768;13.150;2022-09-12T10:12:38;23.20;96.30
23477;DHT22;11911;50.768;13.150;2022-09-12T10:17:44;21.20;96.30
23477;DHT22;11911;50.768;13.150;2022-09-12T10:20:38;20.80;96.30
23477;DHT22;11911;50.768;13.150;2022-09-12T10:23:27;20.10;96.30
23477;DHT22;11911;50.768;13.150;2022-09-12T10:25:58;19.80;96.30
23477;DHT22;11911;50.768;13.150;2022-09-12T10:28:35;19.80;96.30
23477;DHT22;11911;50.768;13.150;2022-09-12T10:31:02;19.80;96.30
23477;DHT22;11911;50.768;13.150;2022-09-12T10:33:28;19.90;96.30
23477;DHT22;11911;50.768;13.150;2022-09-12T10:35:54;19.90;96.30
23477;DHT22;11911;50.768;13.150;2022-09-12T10:38:24;19.90;96.30
23477;DHT22;11911;50.768;13.150;2022-09-12T10:41:05;20.30;96.30
23477;DHT22;11911;50.768;13.150;2022-09-12T10:43:39;21.60;96.30
23477;DHT22;11911;50.768;13.150;2022-09-12T10:48:41;23.20;95.50
23477;DHT22;11911;50.768;13.150;2022-09-12T10:53:44;23.80;96.30
23477;DHT22;11911;50.768;13.150;2022-09-12T11:01:53;22.50;96.30
23477;DHT22;11911;50.768;13.150;2022-09-12T11:07:37;23.70;96.30
23477;DHT22;11911;50.768;13.150;2022-09-12T11:10:27;22.30;96.30
23477;DHT22;11911;50.768;13.150;2022-09-12T11:13:26;23.00;93.60
23477;DHT22;11911;50.768;13.150;2022-09-12T11:25:05;23.50;96.30
23477;DHT22;11911;50.768;13.150;2022-09-12T11:31:01;22.00;96.30
23477;DHT22;11911;50.768;13.150;2022-09-12T11:33:40;21.20;95.50
23477;DHT22;11911;50.768;13.150;2022-09-12T11:36:15;21.10;96.30
23477;DHT22;11911;50.768;13.150;2022-09-12T11:38:51;21.10;96.30
23477;DHT22;11911;50.768;13.150;2022-09-12T11:41:29;21.30;96.30
23477;DHT22;11911;50.768;13.150;2022-09-12T11:46:40;22.10;94.50
23477;DHT22;11911;50.768;13.150;2022-09-12T11:49:57;21.80;91.90
23477;DHT22;11911;50.768;13.150;2022-09-12T11:52:23;21.50;93.10
23477;DHT22;11911;50.768;13.150;2022-09-12T11:54:59;22.10;93.00
23477;DHT22;11911;50.768;13.150;2022-09-12T11:57:49;22.40;91.20
23477;DHT22;11911;50.768;13.150;2022-09-12T12:05:28;23.10;94.90
23477;DHT22;11911;50.768;13.150;2022-09-12T12:08:01;22.70;89.40
23477;DHT22;11911;50.768;13.150;2022-09-12T12:10:56;22.60;93.10
23477;DHT22;11911;50.768;13.150;2022-09-12T12:16:15;21.40;96.30
23477;DHT22;11911;50.768;13.150;2022-09-12T12:18:43;21.10;96.30
23477;DHT22;11911;50.768;13.150;2022-09-12T12:21:29;20.70;96.30
23477;DHT22;11911;50.768;13.150;2022-09-12T12:29:39;20.90;94.50
23477;DHT22;11911;50.768;13.150;2022-09-12T12:48:07;19.90;96.30
23477;DHT22;11911;50.768;13.150;2022-09-12T12:50:34;19.80;96.30
23477;DHT22;11911;50.768;13.150;2022-09-12T12:53:04;19.80;96.30
23477;DHT22;11911;50.768;13.150;2022-09-12T12:55:36;19.80;96.30
23477;DHT22;11911;50.768;13.150;2022-09-12T12:58:04;20.30;96.30
23477;DHT22;11911;50.768;13.150;2022-09-12T13:00:35;21.00;96.30
23477;DHT22;11911;50.768;13.150;2022-09-12T13:06:01;21.80;93.60
23477;DHT22;11911;50.768;13.150;2022-09-12T13:08:30;22.00;92.90
23477;DHT22;11911;50.768;13.150;2022-09-12T13:11:10;22.40;93.20
23477;DHT22;11911;50.768;13.150;2022-09-12T13:13:40;22.00;92.20
23477;DHT22;11911;50.768;13.150;2022-09-12T13:16:09;21.90;93.40
23477;DHT22;11911;50.768;13.150;2022-09-12T13:18:47;22.20;94.00
23477;DHT22;11911;50.768;13.150;2022-09-12T13:21:15;22.30;93.20
23477;DHT22;11911;50.768;13.150;2022-09-12T13:23:41;22.10;92.20
23477;DHT22;11911;50.768;13.150;2022-09-12T13:26:34;22.40;93.50
23477;DHT22;11911;50.768;13.150;2022-09-12T13:29:18;22.20;92.00
23477;DHT22;11911;50.768;13.150;2022-09-12T13:31:59;22.20;93.20
23477;DHT22;11911;50.768;13.150;2022-09-12T13:42:37;21.50;91.60
23477;DHT22;11911;50.768;13.150;2022-09-12T13:45:20;21.70;92.50
23477;DHT22;11911;50.768;13.150;2022-09-12T13:47:49;21.70;92.20
23477;DHT22;11911;50.768;13.150;2022-09-12T13:50:21;21.80;94.20
23477;DHT22;11911;50.768;13.150;2022-09-12T13:52:52;21.70;93.20
23477;DHT22;11911;50.768;13.150;2022-09-12T13:55:30;21.40;93.30
23477;DHT22;11911;50.768;13.150;2022-09-12T13:58:02;21.70;95.70
23477;DHT22;11911;50.768;13.150;2022-09-12T14:00:30;21.80;95.90
23477;DHT22;11911;50.768;13.150;2022-09-12T14:02:57;21.80;96.30
23477;DHT22;11911;50.768;13.150;2022-09-12T14:05:43;22.00;96.30
23477;DHT22;11911;50.768;13.150;2022-09-12T14:08:11;22.00;94.20
23477;DHT22;11911;50.768;13.150;2022-09-12T14:10:43;21.90;96.30
23477;DHT22;11911;50.768;13.150;2022-09-12T14:13:33;21.20;93.10
23477;DHT22;11911;50.768;13.150;2022-09-12T14:15:58;21.30;94.50
23477;DHT22;11911;50.768;13.150;2022-09-12T14:18:31;21.60;96.30
23477;DHT22;11911;50.768;13.150;2022-09-12T14:21:09;21.30;92.30
23477;DHT22;11911;50.768;13.150;2022-09-12T14:23:39;21.40;94.00
23477;DHT22;11911;50.768;13.150;2022-09-12T14:26:09;21.30;95.60
23477;DHT22;11911;50.768;13.150;2022-09-12T14:28:41;21.10;96.30
23477;DHT22;11911;50.768;13.150;2022-09-12T14:31:22;21.30;96.30
23477;DHT22;11911;50.768;13.150;2022-09-12T14:33:50;21.30;96.30
23477;DHT22;11911;50.768;13.150;2022-09-12T14:38:59;20.80;96.30
23477;DHT22;11911;50.768;13.150;2022-09-12T14:41:31;20.50;96.30
23477;DHT22;11911;50.768;13.150;2022-09-12T14:43:59;20.50;96.30
23477;DHT22;11911;50.768;13.150;2022-09-12T14:46:33;20.40;96.30
23477;DHT22;11911;50.768;13.150;2022-09-12T14:49:15;20.40;96.30
23477;DHT22;11911;50.768;13.150;2022-09-12T14:52:00;20.60;96.30
23477;DHT22;11911;50.768;13.150;2022-09-12T14:56:58;20.60;96.30
23477;DHT22;11911;50.768;13.150;2022-09-12T15:04:39;20.50;96.30
23477;DHT22;11911;50.768;13.150;2022-09-12T15:07:28;20.30;96.30
23477;DHT22;11911;50.768;13.150;2022-09-12T15:10:12;20.30;96.30
23477;DHT22;11911;50.768;13.150;2022-09-12T15:12:40;20.30;96.30
23477;DHT22;11911;50.768;13.150;2022-09-12T15:15:17;20.20;96.30
23477;DHT22;11911;50.768;13.150;2022-09-12T15:17:43;20.30;96.30
23477;DHT22;11911;50.768;13.150;2022-09-12T15:20:09;20.30;96.30
23477;DHT22;11911;50.768;13.150;2022-09-12T15:22:36;20.30;96.30
23477;DHT22;11911;50.768;13.150;2022-09-12T15:25:03;20.20;96.30
23477;DHT22;11911;50.768;13.150;2022-09-12T15:27:29;20.30;96.30
23477;DHT22;11911;50.768;13.150;2022-09-12T15:29:55;20.30;96.30
23477;DHT22;11911;50.768;13.150;2022-09-12T15:32:28;20.10;96.30
23477;DHT22;11911;50.768;13.150;2022-09-12T15:34:54;20.00;96.30
23477;DHT22;11911;50.768;13.150;2022-09-12T15:37:22;19.90;96.30
23477;DHT22;11911;50.768;13.150;2022-09-12T15:39:48;19.80;96.30
23477;DHT22;11911;50.768;13.150;2022-09-12T15:42:15;19.80;96.30
23477;DHT22;11911;50.768;13.150;2022-09-12T15:44:41;19.80;96.30
23477;DHT22;11911;50.768;13.150;2022-09-12T15:47:11;19.60;96.30
23477;DHT22;11911;50.768;13.150;2022-09-12T15:49:38;19.50;96.30
23477;DHT22;11911;50.768;13.150;2022-09-12T15:52:03;19.40;96.30
23477;DHT22;11911;50.768;13.150;2022-09-12T15:54:29;19.30;96.30
23477;DHT22;11911;50.768;13.150;2022-09-12T15:56:54;19.30;96.30
23477;DHT22;11911;50.768;13.150;2022-09-12T15:59:20;19.20;96.30
23477;DHT22;11911;50.768;13.150;2022-09-12T16:01:45;19.20;96.30
23477;DHT22;11911;50.768;13.150;2022-09-12T16:04:22;19.00;96.30
23477;DHT22;11911;50.768;13.150;2022-09-12T16:06:49;18.90;96.30
23477;DHT22;11911;50.768;13.150;2022-09-12T16:09:15;18.80;96.30
23477;DHT22;11911;50.768;13.150;2022-09-12T16:11:41;18.70;96.30
23477;DHT22;11911;50.768;13.150;2022-09-12T16:14:07;18.70;96.30
23477;DHT22;11911;50.768;13.150;2022-09-12T16:16:32;18.60;96.30
23477;DHT22;11911;50.768;13.150;2022-09-12T16:18:58;18.60;96.30
23477;DHT22;11911;50.768;13.150;2022-09-12T16:21:23;18.50;96.30
23477;DHT22;11911;50.768;13.150;2022-09-12T16:23:49;18.30;96.30
23477;DHT22;11911;50.768;13.150;2022-09-12T16:26:15;18.20;96.30
23477;DHT22;11911;50.768;13.150;2022-09-12T16:28:41;18.00;96.30
23477;DHT22;11911;50.768;13.150;2022-09-12T16:31:09;17.90;96.30
23477;DHT22;11911;50.768;13.150;2022-09-12T16:33:36;17.80;96.30
23477;DHT22;11911;50.768;13.150;2022-09-12T16:36:05;17.70;96.30
23477;DHT22;11911;50.768;13.150;2022-09-12T16:38:40;17.60;96.30
23477;DHT22;11911;50.768;13.150;2022-09-12T16:41:06;17.50;96.30
23477;DHT22;11911;50.768;13.150;2022-09-12T16:43:33;17.30;96.30
23477;DHT22;11911;50.768;13.150;2022-09-12T16:46:07;17.20;96.30
23477;DHT22;11911;50.768;13.150;2022-09-12T16:48:34;17.10;96.30
23477;DHT22;11911;50.768;13.150;2022-09-12T16:51:05;17.00;96.30
23477;DHT22;11911;50.768;13.150;2022-09-12T16:53:35;16.90;96.30
23477;DHT22;11911;50.768;13.150;2022-09-12T16:56:02;16.80;96.30
23477;DHT22;11911;50.768;13.150;2022-09-12T16:58:31;16.70;96.30
23477;DHT22;11911;50.768;13.150;2022-09-12T17:03:33;16.60;96.30
23477;DHT22;11911;50.768;13.150;2022-09-12T17:06:05;16.50;96.30
23477;DHT22;11911;50.768;13.150;2022-09-12T17:08:37;16.50;96.30
23477;DHT22;11911;50.768;13.150;2022-09-12T17:11:06;16.40;96.30
23477;DHT22;11911;50.768;13.150;2022-09-12T17:13:32;16.30;96.30
23477;DHT22;11911;50.768;13.150;2022-09-12T17:15:57;16.20;96.30
23477;DHT22;11911;50.768;13.150;2022-09-12T17:18:24;16.10;96.30
23477;DHT22;11911;50.768;13.150;2022-09-12T17:20:50;16.00;96.30
23477;DHT22;11911;50.768;13.150;2022-09-12T17:23:15;15.80;96.30
23477;DHT22;11911;50.768;13.150;2022-09-12T17:25:49;15.70;96.30
23477;DHT22;11911;50.768;13.150;2022-09-12T17:28:16;15.50;96.30
23477;DHT22;11911;50.768;13.150;2022-09-12T17:30:42;15.40;96.30
23477;DHT22;11911;50.768;13.150;2022-09-12T17:33:07;15.20;96.30
23477;DHT22;11911;50.768;13.150;2022-09-12T17:35:34;15.10;96.30
23477;DHT22;11911;50.768;13.150;2022-09-12T17:37:59;15.00;96.30
23477;DHT22;11911;50.768;13.150;2022-09-12T17:40:26;14.90;96.30
23477;DHT22;11911;50.768;13.150;2022-09-12T17:42:51;14.70;96.30
23477;DHT22;11911;50.768;13.150;2022-09-12T17:45:17;14.70;96.30
23477;DHT22;11911;50.768;13.150;2022-09-12T17:47:42;14.60;96.30
23477;DHT22;11911;50.768;13.150;2022-09-12T17:50:08;14.60;96.30
23477;DHT22;11911;50.768;13.150;2022-09-12T17:52:34;14.50;96.30
23477;DHT22;11911;50.768;13.150;2022-09-12T17:55:00;14.40;96.30
23477;DHT22;11911;50.768;13.150;2022-09-12T17:57:26;14.40;96.30
23477;DHT22;11911;50.768;13.150;2022-09-12T17:59:51;14.30;96.30
23477;DHT22;11911;50.768;13.150;2022-09-12T18:02:17;14.30;96.30
23477;DHT22;11911;50.768;13.150;2022-09-12T18:04:44;14.20;96.30
23477;DHT22;11911;50.768;13.150;2022-09-12T18:07:14;14.20;96.30
23477;DHT22;11911;50.768;13.150;2022-09-12T18:09:40;14.20;96.30
23477;DHT22;11911;50.768;13.150;2022-09-12T18:12:09;14.10;96.30
23477;DHT22;11911;50.768;13.150;2022-09-12T18:14:35;14.10;96.30
23477;DHT22;11911;50.768;13.150;2022-09-12T18:17:00;14.10;96.30
23477;DHT22;11911;50.768;13.150;2022-09-12T18:19:26;14.00;96.30
23477;DHT22;11911;50.768;13.150;2022-09-12T18:21:53;14.00;96.30
23477;DHT22;11911;50.768;13.150;2022-09-12T18:24:19;13.90;96.30
23477;DHT22;11911;50.768;13.150;2022-09-12T18:26:44;13.80;96.30
23477;DHT22;11911;50.768;13.150;2022-09-12T18:29:11;13.70;96.30
23477;DHT22;11911;50.768;13.150;2022-09-12T18:31:36;13.60;96.30
23477;DHT22;11911;50.768;13.150;2022-09-12T18:34:02;13.50;96.30
23477;DHT22;11911;50.768;13.150;2022-09-12T18:36:30;13.30;96.30
23477;DHT22;11911;50.768;13.150;2022-09-12T18:38:57;13.20;96.30
23477;DHT22;11911;50.768;13.150;2022-09-12T18:41:23;13.00;96.30
23477;DHT22;11911;50.768;13.150;2022-09-12T18:43:53;12.90;96.30
23477;DHT22;11911;50.768;13.150;2022-09-12T18:46:19;12.90;96.30
23477;DHT22;11911;50.768;13.150;2022-09-12T18:48:45;12.80;96.30
23477;DHT22;11911;50.768;13.150;2022-09-12T18:51:13;12.60;96.30
23477;DHT22;11911;50.768;13.150;2022-09-12T18:53:39;12.50;96.30
23477;DHT22;11911;50.768;13.150;2022-09-12T18:56:07;12.40;96.30
23477;DHT22;11911;50.768;13.150;2022-09-12T18:58:41;12.30;96.30
23477;DHT22;11911;50.768;13.150;2022-09-12T19:01:14;12.20;96.30
23477;DHT22;11911;50.768;13.150;2022-09-12T19:03:40;12.10;96.30
23477;DHT22;11911;50.768;13.150;2022-09-12T19:06:08;12.00;96.30
23477;DHT22;11911;50.768;13.150;2022-09-12T19:08:34;12.00;96.30
23477;DHT22;11911;50.768;13.150;2022-09-12T19:11:00;12.00;96.30
23477;DHT22;11911;50.768;13.150;2022-09-12T19:13:26;12.00;96.30
23477;DHT22;11911;50.768;13.150;2022-09-12T19:15:51;12.00;96.30
23477;DHT22;11911;50.768;13.150;2022-09-12T19:18:16;11.80;96.30
23477;DHT22;11911;50.768;13.150;2022-09-12T19:20:42;11.70;96.30
23477;DHT22;11911;50.768;13.150;2022-09-12T19:23:08;11.50;96.30
23477;DHT22;11911;50.768;13.150;2022-09-12T19:25:33;11.40;96.30
23477;DHT22;11911;50.768;13.150;2022-09-12T19:27:59;11.40;96.30
23477;DHT22;11911;50.768;13.150;2022-09-12T19:30:24;11.50;96.30
23477;DHT22;11911;50.768;13.150;2022-09-12T19:32:50;11.50;96.30
23477;DHT22;11911;50.768;13.150;2022-09-12T19:35:15;11.50;96.30
23477;DHT22;11911;50.768;13.150;2022-09-12T19:37:41;11.70;96.30
23477;DHT22;11911;50.768;13.150;2022-09-12T19:40:06;11.90;96.30
23477;DHT22;11911;50.768;13.150;2022-09-12T19:42:32;12.10;96.30
23477;DHT22;11911;50.768;13.150;2022-09-12T19:44:58;12.10;96.30
23477;DHT22;11911;50.768;13.150;2022-09-12T19:47:23;12.00;96.30
23477;DHT22;11911;50.768;13.150;2022-09-12T19:49:52;11.90;96.30
23477;DHT22;11911;50.768;13.150;2022-09-12T19:52:18;11.80;96.30
23477;DHT22;11911;50.768;13.150;2022-09-12T19:54:43;11.80;96.30
23477;DHT22;11911;50.768;13.150;2022-09-12T19:57:10;11.80;96.30
23477;DHT22;11911;50.768;13.150;2022-09-12T19:59:35;11.90;96.30
23477;DHT22;11911;50.768;13.150;2022-09-12T20:02:01;12.00;96.30
23477;DHT22;11911;50.768;13.150;2022-09-12T20:04:26;12.20;96.30
23477;DHT22;11911;50.768;13.150;2022-09-12T20:06:52;12.20;96.30
23477;DHT22;11911;50.768;13.150;2022-09-12T20:09:17;12.20;96.30
23477;DHT22;11911;50.768;13.150;2022-09-12T20:11:43;12.20;96.30
23477;DHT22;11911;50.768;13.150;2022-09-12T20:14:08;12.20;96.30
23477;DHT22;11911;50.768;13.150;2022-09-12T20:16:34;12.10;96.30
23477;DHT22;11911;50.768;13.150;2022-09-12T20:19:02;12.10;96.30
23477;DHT22;11911;50.768;13.150;2022-09-12T20:21:31;12.10;96.30
23477;DHT22;11911;50.768;13.150;2022-09-12T20:24:06;12.00;96.30
23477;DHT22;11911;50.768;13.150;2022-09-12T20:26:33;11.90;96.30
23477;DHT22;11911;50.768;13.150;2022-09-12T20:28:59;11.70;96.30
23477;DHT22;11911;50.768;13.150;2022-09-12T20:31:24;11.60;96.30
23477;DHT22;11911;50.768;13.150;2022-09-12T20:33:50;11.50;96.30
23477;DHT22;11911;50.768;13.150;2022-09-12T20:36:19;11.40;96.30
23477;DHT22;11911;50.768;13.150;2022-09-12T20:38:50;11.40;96.30
23477;DHT22;11911;50.768;13.150;2022-09-12T20:41:17;11.30;96.30
23477;DHT22;11911;50.768;13.150;2022-09-12T20:43:43;11.20;96.30
23477;DHT22;11911;50.768;13.150;2022-09-12T20:46:09;11.10;96.30
23477;DHT22;11911;50.768;13.150;2022-09-12T20:48:36;11.00;96.30
23477;DHT22;11911;50.768;13.150;2022-09-12T20:51:02;11.00;96.30
23477;DHT22;11911;50.768;13.150;2022-09-12T20:53:28;11.00;96.30
23477;DHT22;11911;50.768;13.150;2022-09-12T20:55:54;11.00;96.30
23477;DHT22;11911;50.768;13.150;2022-09-12T20:58:21;11.00;96.30
23477;DHT22;11911;50.768;13.150;2022-09-12T21:00:47;10.90;96.30
23477;DHT22;11911;50.768;13.150;2022-09-12T21:03:14;10.90;96.30